Item Display Status Humidity-temperature Sensor

Elevation Above Sea Level: 3 m

 

Deployed Sensor

  • Serial Number: 20661650
  • NDBC Property Number: 45975
  • Start Date: 5/15/2023 (14:15:27 Z)
  • End Date: Currently Active
Relative Humidity [%]     6 entries per hour
Showing data from 3/3/2024 (18:00:00 Z) to 3/2/2024 (00:00:01 Z)
Previous Next [ Day | 3-Days | 7-Days ]
First Last
Prev [ Day | 3-Days | 7-Days ] Next
First Last

Start Time:     :
End Time:     :     
Time (in GMT) :00 :50 :40 :30 :20 :10
Previous Next [ Day | 3-Days | 7-Days ]
First Last
Prev [ Day | 3-Days | 7-Days ] Next
First Last


123 => good data
MM => data is determined as missing
-- => data not received/configured
Back to Top Back to Top
3/3/2024 18:00 to 17:10 89.63 87.21 85.72 84.96 84.37 83.47
3/3/2024 17:00 to 16:10 83.67 85.16 88.04 87.90 87.88 86.65
3/3/2024 16:00 to 15:10 86.63 86.71 90.33 91.68 87.72 87.35
3/3/2024 15:00 to 14:10 87.19 87.09 86.67 86.31 86.95 87.53
3/3/2024 14:00 to 13:10 87.29 87.90 87.98 88.40 88.32 87.64
3/3/2024 13:00 to 12:10 87.13 86.59 85.18 83.87 83.55 83.79
3/3/2024 12:00 to 11:10 83.25 83.37 82.46 83.57 82.04 81.66
3/3/2024 11:00 to 10:10 82.18 81.37 81.82 85.40 85.32 85.40
3/3/2024 10:00 to 9:10 84.92 85.44 85.84 87.13 88.94 90.21
3/3/2024 09:00 to 8:10 90.45 88.78 85.80 85.58 87.49 85.24
3/3/2024 08:00 to 7:10 85.44 86.31 86.99 87.70 88.56 90.45
3/3/2024 07:00 to 6:10 91.08 88.38 84.84 85.22 85.38 84.84
3/3/2024 06:00 to 5:10 84.53 85.06 85.88 85.68 85.66 84.07
3/3/2024 05:00 to 4:10 83.49 83.00 83.73 84.64 85.12 84.76
3/3/2024 04:00 to 3:10 85.02 85.86 88.34 90.54 91.68 92.49
3/3/2024 03:00 to 2:10 90.62 91.70 92.57 94.02 94.02 93.80
3/3/2024 02:00 to 1:10 94.00 92.93 91.42 91.99 92.31 92.49
3/3/2024 01:00 to 0:10 -- -- -- -- -- --
3/3/2024 00:00 to 23:10 90.03 87.43 86.55 86.00 89.71 92.65
3/2/2024 23:00 to 22:10 93.29 93.86 93.72 93.15 93.27 92.77
3/2/2024 22:00 to 21:10 92.35 92.77 92.83 91.94 91.06 91.66
3/2/2024 21:00 to 20:10 91.74 92.95 91.02 90.39 86.55 85.78
3/2/2024 20:00 to 19:10 86.81 89.11 90.82 89.59 89.35 90.25
3/2/2024 19:00 to 18:10 90.92 89.43 90.43 90.92 90.72 90.19
3/2/2024 18:00 to 17:10 91.30 91.40 91.34 89.53 88.14 89.91
3/2/2024 17:00 to 16:10 92.45 92.61 91.40 91.70 90.45 89.91
3/2/2024 16:00 to 15:10 90.17 87.31 87.41 88.04 89.81 90.41
3/2/2024 15:00 to 14:10 91.36 91.04 89.87 89.29 89.73 90.41
3/2/2024 14:00 to 13:10 89.13 88.18 88.42 88.74 90.05 90.45
3/2/2024 13:00 to 12:10 85.98 86.13 81.13 80.41 80.14 82.38
3/2/2024 12:00 to 11:10 86.11 85.36 85.82 89.00 86.02 82.80
3/2/2024 11:00 to 10:10 79.84 80.89 81.74 83.37 80.69 80.59
3/2/2024 10:00 to 9:10 80.75 79.86 79.54 79.78 80.53 82.06
3/2/2024 09:00 to 8:10 80.99 81.66 78.27 78.07 79.12 79.50
3/2/2024 08:00 to 7:10 80.59 81.35 80.45 80.21 79.72 78.35
3/2/2024 07:00 to 6:10 78.74 79.78 78.33 85.32 86.65 88.08
3/2/2024 06:00 to 5:10 87.68 88.68 91.30 92.03 93.25 93.23
3/2/2024 05:00 to 4:10 92.27 92.21 90.45 86.04 78.13 78.84
3/2/2024 04:00 to 3:10 78.23 77.73 78.11 77.57 77.51 79.68
3/2/2024 03:00 to 2:10 80.71 80.49 79.58 78.25 78.47 79.36
3/2/2024 02:00 to 1:10 78.47 78.43 78.37 78.47 76.80 77.97
3/2/2024 01:00 to 0:10 78.61 77.81 78.37 77.61 78.57 79.16

 

 

 

Air Temperature [°C]     6 entries per hour
Showing data from 3/3/2024 (18:00:00 Z) to 3/2/2024 (00:00:01 Z)
Previous Next [ Day | 3-Days | 7-Days ]
First Last
Prev [ Day | 3-Days | 7-Days ] Next
First Last

Start Time:     :
End Time:     :     
Time (in GMT) :00 :50 :40 :30 :20 :10
Previous Next [ Day | 3-Days | 7-Days ]
First Last
Prev [ Day | 3-Days | 7-Days ] Next
First Last


123 => good data
MM => data is determined as missing
-- => data not received/configured
Back to Top Back to Top
3/3/2024 18:00 to 17:10 27.68 28.22 28.95 29.04 28.98 28.97
3/3/2024 17:00 to 16:10 28.94 28.75 28.68 28.43 28.50 28.34
3/3/2024 16:00 to 15:10 28.30 28.15 27.53 27.45 28.68 28.65
3/3/2024 15:00 to 14:10 28.66 28.62 28.64 28.69 28.61 28.77
3/3/2024 14:00 to 13:10 28.62 28.43 28.61 28.55 28.38 28.30
3/3/2024 13:00 to 12:10 28.49 28.54 28.64 28.81 28.77 28.86
3/3/2024 12:00 to 11:10 28.72 28.81 28.82 28.94 28.99 28.88
3/3/2024 11:00 to 10:10 29.09 29.16 28.98 28.90 28.95 28.91
3/3/2024 10:00 to 9:10 28.91 28.75 28.77 28.51 28.49 28.22
3/3/2024 09:00 to 8:10 27.96 27.98 28.92 28.67 28.94 28.92
3/3/2024 08:00 to 7:10 28.95 28.79 28.70 28.61 28.61 28.15
3/3/2024 07:00 to 6:10 28.02 27.86 29.09 29.02 29.04 28.97
3/3/2024 06:00 to 5:10 29.03 28.80 28.88 28.77 28.87 28.87
3/3/2024 05:00 to 4:10 29.01 28.88 28.86 28.75 28.86 28.84
3/3/2024 04:00 to 3:10 28.75 28.59 28.47 28.10 27.81 27.61
3/3/2024 03:00 to 2:10 28.14 27.88 27.44 27.10 26.71 25.85
3/3/2024 02:00 to 1:10 25.64 26.10 27.09 27.50 27.51 27.08
3/3/2024 01:00 to 0:10 -- -- -- -- -- --
3/3/2024 00:00 to 23:10 27.27 27.89 27.75 27.39 26.66 26.65
3/2/2024 23:00 to 22:10 26.63 26.95 26.69 26.81 26.56 26.52
3/2/2024 22:00 to 21:10 26.29 26.13 26.84 27.18 27.59 28.21
3/2/2024 21:00 to 20:10 27.54 26.89 27.53 28.23 28.80 28.61
3/2/2024 20:00 to 19:10 28.52 28.17 27.70 27.68 27.66 27.42
3/2/2024 19:00 to 18:10 27.53 28.17 27.94 27.81 27.82 27.73
3/2/2024 18:00 to 17:10 27.45 27.87 27.75 27.30 28.30 28.13
3/2/2024 17:00 to 16:10 27.74 27.63 27.71 27.64 28.26 28.22
3/2/2024 16:00 to 15:10 28.22 28.54 28.47 28.22 28.28 28.14
3/2/2024 15:00 to 14:10 28.09 28.09 28.35 28.10 28.02 28.04
3/2/2024 14:00 to 13:10 28.36 28.09 27.92 27.59 27.60 27.70
3/2/2024 13:00 to 12:10 28.31 28.05 29.64 29.66 29.55 28.94
3/2/2024 12:00 to 11:10 28.46 29.30 28.90 28.24 28.36 29.30
3/2/2024 11:00 to 10:10 29.67 29.60 29.05 28.35 29.44 29.61
3/2/2024 10:00 to 9:10 29.72 29.82 29.63 29.66 29.55 29.35
3/2/2024 09:00 to 8:10 29.60 29.80 29.64 29.73 29.68 29.61
3/2/2024 08:00 to 7:10 29.67 29.65 29.64 29.62 29.76 29.72
3/2/2024 07:00 to 6:10 29.75 29.78 29.63 29.08 28.90 28.75
3/2/2024 06:00 to 5:10 28.33 28.02 27.36 25.71 26.58 27.36
3/2/2024 05:00 to 4:10 27.07 26.99 27.35 28.18 29.80 29.83
3/2/2024 04:00 to 3:10 29.84 29.83 29.82 29.84 29.86 29.63
3/2/2024 03:00 to 2:10 29.30 29.80 29.67 29.84 29.78 29.70
3/2/2024 02:00 to 1:10 29.83 29.75 29.76 29.78 29.80 29.77
3/2/2024 01:00 to 0:10 29.73 29.79 29.93 29.83 29.80 29.82